Time;durP1;ratioP1;P1;durP2;ratioP2;P2;SDS_P1;SDS_P2;PMS_P1;PMS_P2;Temp;Humidity;BMP_temperature;BMP_pressure;BME280_temperature;BME280_humidity;BME280_pressure;Samples;Min_cycle;Max_cycle;Signal;HPM_P1;HPM_P2
2021/09/07 00:00:18;;;;;;;13.02;7.40;;;;;;;;;;5048310;28;20409;-72
2021/09/07 00:03:03;;;;;;;9.35;6.43;;;;;;;;;;5022913;28;20083;-72
2021/09/07 00:05:47;;;;;;;11.30;6.97;;;;;;;;;;5044639;28;20452;-72
2021/09/07 00:08:32;;;;;;;10.57;6.63;;;;;;;;;;5029972;28;20036;-72
2021/09/07 00:11:16;;;;;;;10.95;6.85;;;;;;;;;;5047406;28;20036;-73
2021/09/07 00:14:01;;;;;;;9.60;6.47;;;;;;;;;;5057184;28;20067;-73
2021/09/07 00:16:45;;;;;;;8.48;6.38;;;;;;;;;;5046169;28;20075;-73
2021/09/07 00:19:30;;;;;;;10.32;7.20;;;;;;;;;;5045416;28;20750;-73
2021/09/07 00:22:15;;;;;;;11.63;6.80;;;;;;;;;;5052294;28;20187;-73
2021/09/07 00:24:59;;;;;;;9.38;6.25;;;;;;;;;;5054751;28;20064;-73
2021/09/07 00:27:44;;;;;;;10.38;6.65;;;;;;;;;;5038864;28;20428;-73
2021/09/07 00:30:29;;;;;;;11.10;6.72;;;;;;;;;;5035519;28;20071;-73
2021/09/07 00:33:14;;;;;;;10.45;7.10;;;;;;;;;;5045486;28;20043;-74
2021/09/07 00:35:59;;;;;;;10.60;6.82;;;;;;;;;;5053098;28;20062;-73
2021/09/07 00:38:43;;;;;;;10.80;6.80;;;;;;;;;;5045119;28;20032;-74
2021/09/07 00:41:28;;;;;;;9.98;7.20;;;;;;;;;;5046736;28;20052;-74
2021/09/07 00:44:19;;;;;;;11.82;6.68;;;;;;;;;;5046255;28;20086;-73
2021/09/07 00:47:05;;;;;;;9.65;6.50;;;;;;;;;;5024511;28;20051;-73
2021/09/07 00:49:49;;;;;;;11.85;7.13;;;;;;;;;;5055455;28;20036;-73
2021/09/07 00:52:34;;;;;;;11.68;7.45;;;;;;;;;;5042621;28;20036;-73
2021/09/07 00:55:20;;;;;;;10.32;7.00;;;;;;;;;;5040383;28;20086;-73
2021/09/07 00:58:04;;;;;;;11.60;6.93;;;;;;;;;;5048258;28;20495;-73
2021/09/07 01:00:49;;;;;;;10.13;6.72;;;;;;;;;;5044718;28;20055;-73
2021/09/07 01:03:35;;;;;;;12.10;7.50;;;;;;;;;;5036198;28;20040;-73
2021/09/07 01:06:19;;;;;;;11.45;7.25;;;;;;;;;;5041126;28;20072;-73
2021/09/07 01:09:04;;;;;;;10.95;7.18;;;;;;;;;;5041792;28;20094;-73
2021/09/07 01:11:48;;;;;;;11.10;6.85;;;;;;;;;;5041486;28;20502;-73
2021/09/07 01:14:34;;;;;;;14.85;7.53;;;;;;;;;;5032149;28;20444;-75
2021/09/07 01:17:19;;;;;;;9.63;6.72;;;;;;;;;;5041134;28;20044;-73
2021/09/07 01:20:03;;;;;;;10.85;6.88;;;;;;;;;;5032317;28;20119;-73
2021/09/07 01:22:49;;;;;;;9.40;6.80;;;;;;;;;;5035099;28;20418;-72
2021/09/07 01:25:34;;;;;;;11.27;7.45;;;;;;;;;;5045976;28;20095;-74
2021/09/07 01:28:19;;;;;;;9.43;6.53;;;;;;;;;;5043838;28;20154;-73
2021/09/07 01:31:03;;;;;;;11.25;7.50;;;;;;;;;;5048373;28;20035;-73
2021/09/07 01:33:48;;;;;;;13.40;7.20;;;;;;;;;;5048740;28;20079;-74
2021/09/07 01:36:33;;;;;;;9.48;6.40;;;;;;;;;;5034433;28;20266;-73
2021/09/07 01:39:18;;;;;;;10.85;6.45;;;;;;;;;;5014320;28;20071;-73
2021/09/07 01:42:04;;;;;;;11.63;7.10;;;;;;;;;;5035203;28;20661;-72
2021/09/07 01:44:48;;;;;;;11.30;7.25;;;;;;;;;;5053321;28;20093;-73
2021/09/07 01:47:33;;;;;;;11.02;6.68;;;;;;;;;;5049064;28;20551;-73
2021/09/07 01:50:17;;;;;;;10.45;6.47;;;;;;;;;;5054669;28;20031;-73
2021/09/07 01:53:02;;;;;;;11.57;6.80;;;;;;;;;;5027788;28;20044;-72
2021/09/07 01:55:47;;;;;;;9.07;6.38;;;;;;;;;;5049626;28;20508;-72
2021/09/07 01:58:31;;;;;;;10.43;7.18;;;;;;;;;;5050203;28;20043;-73
2021/09/07 02:01:16;;;;;;;14.32;7.90;;;;;;;;;;5048144;28;20052;-73
2021/09/07 02:04:00;;;;;;;11.52;6.88;;;;;;;;;;5050438;28;20567;-73
2021/09/07 02:06:44;;;;;;;10.60;6.68;;;;;;;;;;5052555;28;20136;-73
2021/09/07 02:09:29;;;;;;;11.55;7.00;;;;;;;;;;5050808;28;20140;-72
2021/09/07 02:12:14;;;;;;;15.77;8.43;;;;;;;;;;5050055;28;20107;-72
2021/09/07 02:14:59;;;;;;;10.52;7.22;;;;;;;;;;5057202;28;20040;-73
2021/09/07 02:17:43;;;;;;;10.60;7.25;;;;;;;;;;5033361;28;20119;-72
2021/09/07 02:20:28;;;;;;;10.23;7.18;;;;;;;;;;5056082;28;20067;-72
2021/09/07 02:23:12;;;;;;;10.77;6.35;;;;;;;;;;5044186;28;20055;-72
2021/09/07 02:25:57;;;;;;;11.95;7.72;;;;;;;;;;5058831;28;20119;-73
2021/09/07 02:28:41;;;;;;;10.18;6.80;;;;;;;;;;5035382;28;20406;-73
2021/09/07 02:31:26;;;;;;;11.57;7.20;;;;;;;;;;5038500;28;20071;-73
2021/09/07 02:34:10;;;;;;;10.77;7.25;;;;;;;;;;5053521;28;20043;-73
2021/09/07 02:36:55;;;;;;;11.00;7.00;;;;;;;;;;5049505;28;20039;-72
2021/09/07 02:39:39;;;;;;;13.35;8.25;;;;;;;;;;5050277;28;20087;-72
2021/09/07 02:42:24;;;;;;;11.52;7.38;;;;;;;;;;5057775;28;20043;-72
2021/09/07 02:45:08;;;;;;;12.65;7.60;;;;;;;;;;5060282;28;20402;-72
2021/09/07 02:47:53;;;;;;;12.68;7.95;;;;;;;;;;5048628;28;20039;-72
2021/09/07 02:50:38;;;;;;;12.90;7.95;;;;;;;;;;5053710;28;20039;-72
2021/09/07 02:53:22;;;;;;;12.95;7.72;;;;;;;;;;5051707;28;20044;-72
2021/09/07 02:56:07;;;;;;;12.57;7.72;;;;;;;;;;5038950;28;20045;-73
2021/09/07 02:58:52;;;;;;;11.73;7.43;;;;;;;;;;5053524;28;20066;-72
2021/09/07 03:01:36;;;;;;;11.80;7.35;;;;;;;;;;5039297;28;20086;-72
2021/09/07 03:04:21;;;;;;;15.27;8.95;;;;;;;;;;5048884;28;20040;-73
2021/09/07 03:07:06;;;;;;;12.40;7.40;;;;;;;;;;5048819;28;20071;-72
2021/09/07 03:09:51;;;;;;;14.65;8.55;;;;;;;;;;5044130;28;20051;-72
2021/09/07 03:12:35;;;;;;;15.23;8.30;;;;;;;;;;5053424;28;20790;-72
2021/09/07 03:15:20;;;;;;;15.27;8.43;;;;;;;;;;5049273;28;20048;-72
2021/09/07 03:18:04;;;;;;;13.85;8.13;;;;;;;;;;5048777;28;20426;-72
2021/09/07 03:20:48;;;;;;;13.55;8.20;;;;;;;;;;5052222;28;20076;-72
2021/09/07 03:23:33;;;;;;;13.73;8.45;;;;;;;;;;5048439;28;20047;-72
2021/09/07 03:26:17;;;;;;;15.07;8.40;;;;;;;;;;5043488;28;20070;-72
2021/09/07 03:29:02;;;;;;;16.05;8.13;;;;;;;;;;5044181;28;20071;-72
2021/09/07 03:31:46;;;;;;;15.82;8.60;;;;;;;;;;5034246;28;20098;-72
2021/09/07 03:34:31;;;;;;;19.33;9.65;;;;;;;;;;5051590;28;20163;-72
2021/09/07 03:37:15;;;;;;;14.27;8.18;;;;;;;;;;5049212;28;20067;-72
2021/09/07 03:40:00;;;;;;;13.75;8.20;;;;;;;;;;5044818;28;20055;-72
2021/09/07 03:42:45;;;;;;;15.23;8.40;;;;;;;;;;5048454;28;20084;-73
2021/09/07 03:45:29;;;;;;;17.05;8.75;;;;;;;;;;5046367;28;20111;-72
2021/09/07 03:48:14;;;;;;;14.18;8.30;;;;;;;;;;5040025;28;20032;-72
2021/09/07 03:50:58;;;;;;;14.13;8.93;;;;;;;;;;5047934;28;20048;-72
2021/09/07 03:53:46;;;;;;;13.52;8.57;;;;;;;;;;5047727;28;20095;-72
2021/09/07 03:56:30;;;;;;;14.15;7.97;;;;;;;;;;5047464;28;20492;-72
2021/09/07 03:59:16;;;;;;;14.88;8.73;;;;;;;;;;5023199;28;20576;-72
2021/09/07 04:02:00;;;;;;;12.07;8.27;;;;;;;;;;5048182;28;20114;-73
2021/09/07 04:04:45;;;;;;;13.77;8.57;;;;;;;;;;5048469;28;20124;-72
2021/09/07 04:07:29;;;;;;;12.95;7.90;;;;;;;;;;5047864;28;20040;-72
2021/09/07 04:10:14;;;;;;;12.10;7.78;;;;;;;;;;5048561;28;20031;-72
2021/09/07 04:12:58;;;;;;;13.52;8.30;;;;;;;;;;5048442;28;20512;-72
2021/09/07 04:15:43;;;;;;;13.90;8.68;;;;;;;;;;5048509;28;20040;-73
2021/09/07 04:18:28;;;;;;;15.65;8.77;;;;;;;;;;5048484;28;20078;-72
2021/09/07 04:21:12;;;;;;;12.88;8.40;;;;;;;;;;5048620;28;20135;-72
2021/09/07 04:23:57;;;;;;;15.93;9.40;;;;;;;;;;5048218;28;20111;-72
2021/09/07 04:26:42;;;;;;;11.80;7.97;;;;;;;;;;5048793;28;20078;-72
2021/09/07 04:29:26;;;;;;;12.77;8.30;;;;;;;;;;5047518;28;20546;-72
2021/09/07 04:32:11;;;;;;;12.35;8.63;;;;;;;;;;5046871;28;20060;-72
2021/09/07 04:34:55;;;;;;;11.75;7.50;;;;;;;;;;5047258;28;20058;-72
2021/09/07 04:37:40;;;;;;;11.82;7.82;;;;;;;;;;5045486;28;20039;-72
2021/09/07 04:40:24;;;;;;;12.85;8.13;;;;;;;;;;5047113;28;20115;-72
2021/09/07 04:43:09;;;;;;;11.50;8.35;;;;;;;;;;5044868;28;20052;-72
2021/09/07 04:45:53;;;;;;;12.82;8.20;;;;;;;;;;5049595;28;20122;-72
2021/09/07 04:48:38;;;;;;;11.95;8.05;;;;;;;;;;5039887;28;20121;-72
2021/09/07 04:51:23;;;;;;;12.50;8.07;;;;;;;;;;5044231;28;20047;-74
2021/09/07 04:54:08;;;;;;;11.50;7.75;;;;;;;;;;5044622;28;20052;-72
2021/09/07 04:56:52;;;;;;;12.82;7.88;;;;;;;;;;5044238;28;20043;-72
2021/09/07 04:59:38;;;;;;;11.88;7.65;;;;;;;;;;5046219;28;20068;-72
2021/09/07 05:02:23;;;;;;;13.05;8.80;;;;;;;;;;5047786;28;20063;-73
2021/09/07 05:05:08;;;;;;;14.23;8.18;;;;;;;;;;5048644;28;20040;-72
2021/09/07 05:07:52;;;;;;;14.52;8.02;;;;;;;;;;5047325;28;20048;-73
2021/09/07 05:10:37;;;;;;;13.70;8.40;;;;;;;;;;5047761;28;20039;-72
2021/09/07 05:13:22;;;;;;;12.52;8.07;;;;;;;;;;5049120;28;20051;-74
2021/09/07 05:16:06;;;;;;;14.00;8.25;;;;;;;;;;5033585;28;20044;-72
2021/09/07 05:18:51;;;;;;;13.05;8.15;;;;;;;;;;5034015;28;20044;-72
2021/09/07 05:21:36;;;;;;;13.05;7.93;;;;;;;;;;5033805;28;20085;-73
2021/09/07 05:24:20;;;;;;;12.55;8.13;;;;;;;;;;5048593;28;20060;-72
2021/09/07 05:27:05;;;;;;;13.32;7.93;;;;;;;;;;5048262;28;20118;-72
2021/09/07 05:29:50;;;;;;;12.85;7.90;;;;;;;;;;5034614;28;20603;-72
2021/09/07 05:32:34;;;;;;;14.35;8.43;;;;;;;;;;5047231;28;20509;-72
2021/09/07 05:35:18;;;;;;;12.98;7.90;;;;;;;;;;5047106;28;20095;-73
2021/09/07 05:38:05;;;;;;;12.20;7.68;;;;;;;;;;5028204;28;20216;-72
2021/09/07 05:40:50;;;;;;;11.93;7.80;;;;;;;;;;5047028;28;20154;-72
2021/09/07 05:43:35;;;;;;;11.27;7.50;;;;;;;;;;5045532;28;20044;-71
2021/09/07 05:46:20;;;;;;;13.80;7.90;;;;;;;;;;5047459;28;20039;-73
2021/09/07 05:49:04;;;;;;;11.52;7.82;;;;;;;;;;5039857;28;20393;-71
2021/09/07 05:51:49;;;;;;;12.30;7.90;;;;;;;;;;5048218;28;20048;-71
2021/09/07 05:54:33;;;;;;;11.93;8.23;;;;;;;;;;5034733;28;20829;-71
2021/09/07 05:57:18;;;;;;;12.75;7.70;;;;;;;;;;5048871;28;20421;-71
2021/09/07 06:00:04;;;;;;;12.02;7.30;;;;;;;;;;5047930;28;20091;-71
2021/09/07 06:02:52;;;;;;;12.30;7.85;;;;;;;;;;5032641;28;20055;-71
2021/09/07 06:05:36;;;;;;;11.18;7.47;;;;;;;;;;5047030;28;20091;-71
2021/09/07 06:08:21;;;;;;;11.55;7.05;;;;;;;;;;5020429;28;20040;-72
2021/09/07 06:11:06;;;;;;;12.65;7.60;;;;;;;;;;5046648;28;20497;-71
2021/09/07 06:13:51;;;;;;;10.45;7.40;;;;;;;;;;5027433;28;20047;-71
2021/09/07 06:16:36;;;;;;;11.98;7.82;;;;;;;;;;5046667;28;20112;-71
2021/09/07 06:19:20;;;;;;;11.23;7.22;;;;;;;;;;5047171;28;20044;-71
2021/09/07 06:22:05;;;;;;;10.48;7.47;;;;;;;;;;5029930;28;20055;-71
2021/09/07 06:24:52;;;;;;;9.77;7.32;;;;;;;;;;5046323;28;20421;-72
2021/09/07 06:27:37;;;;;;;10.65;7.15;;;;;;;;;;5047079;28;20039;-72
2021/09/07 06:30:21;;;;;;;10.52;7.20;;;;;;;;;;5026507;28;20048;-71
2021/09/07 06:33:06;;;;;;;10.02;7.10;;;;;;;;;;5032890;28;20099;-72
2021/09/07 06:35:51;;;;;;;11.57;7.47;;;;;;;;;;5046401;28;20084;-71
2021/09/07 06:38:35;;;;;;;11.43;7.03;;;;;;;;;;5046478;28;20399;-71
2021/09/07 06:41:20;;;;;;;11.68;7.35;;;;;;;;;;5046330;28;20537;-71
2021/09/07 06:44:04;;;;;;;10.50;7.30;;;;;;;;;;5020765;28;20040;-72
2021/09/07 06:46:49;;;;;;;10.13;7.10;;;;;;;;;;5045174;28;20055;-71
2021/09/07 06:49:33;;;;;;;10.70;7.15;;;;;;;;;;5039677;28;20036;-71
2021/09/07 06:52:20;;;;;;;10.35;7.07;;;;;;;;;;5048112;28;20039;-71
2021/09/07 06:55:05;;;;;;;12.13;6.93;;;;;;;;;;5045971;28;20144;-71
2021/09/07 06:57:50;;;;;;;9.85;6.85;;;;;;;;;;5046062;28;20437;-71
2021/09/07 07:00:35;;;;;;;8.90;6.13;;;;;;;;;;5017806;28;20114;-72
2021/09/07 07:03:19;;;;;;;9.70;6.85;;;;;;;;;;5043578;28;20472;-71
2021/09/07 07:06:04;;;;;;;9.65;6.50;;;;;;;;;;5045929;28;20059;-71
2021/09/07 07:08:49;;;;;;;9.18;6.75;;;;;;;;;;5045989;28;20784;-73
2021/09/07 07:11:33;;;;;;;8.73;6.15;;;;;;;;;;5046940;28;20099;-71
2021/09/07 07:14:21;;;;;;;8.88;6.63;;;;;;;;;;5045344;28;20078;-71
2021/09/07 07:17:06;;;;;;;9.15;6.32;;;;;;;;;;5045330;28;20584;-71
2021/09/07 07:19:51;;;;;;;8.65;6.22;;;;;;;;;;5032100;28;20087;-72
2021/09/07 07:22:35;;;;;;;10.00;6.90;;;;;;;;;;5024826;28;20063;-71
2021/09/07 07:25:20;;;;;;;9.45;6.78;;;;;;;;;;5039360;28;20414;-72
2021/09/07 07:28:04;;;;;;;9.35;6.40;;;;;;;;;;5045430;28;20540;-71
2021/09/07 07:30:49;;;;;;;8.65;6.15;;;;;;;;;;5027997;28;20051;-74
2021/09/07 07:33:34;;;;;;;8.95;6.53;;;;;;;;;;5043624;28;20098;-71
2021/09/07 07:36:18;;;;;;;9.18;6.70;;;;;;;;;;5039620;28;20039;-71
2021/09/07 07:39:03;;;;;;;7.80;6.00;;;;;;;;;;5045904;28;20051;-71
2021/09/07 07:41:48;;;;;;;8.38;6.13;;;;;;;;;;5026606;28;20048;-72
2021/09/07 07:44:32;;;;;;;8.52;6.15;;;;;;;;;;5025557;28;20574;-72
2021/09/07 07:47:17;;;;;;;8.65;6.57;;;;;;;;;;5016542;28;20035;-71
2021/09/07 07:50:01;;;;;;;11.55;7.10;;;;;;;;;;5044894;28;20044;-71
2021/09/07 07:52:46;;;;;;;9.07;6.55;;;;;;;;;;5044847;28;20048;-71
2021/09/07 07:55:30;;;;;;;9.82;6.85;;;;;;;;;;5045824;28;20139;-71
2021/09/07 07:58:15;;;;;;;11.50;6.35;;;;;;;;;;5044677;28;20182;-71
2021/09/07 08:01:00;;;;;;;9.50;6.95;;;;;;;;;;5044314;28;20063;-72
2021/09/07 08:03:46;;;;;;;8.88;6.22;;;;;;;;;;5045574;28;20577;-72
2021/09/07 08:06:32;;;;;;;17.85;8.32;;;;;;;;;;5028027;28;20114;-72
2021/09/07 08:09:17;;;;;;;11.75;8.10;;;;;;;;;;5034354;28;20206;-72
2021/09/07 08:12:02;;;;;;;10.95;7.07;;;;;;;;;;5030036;28;20082;-72
2021/09/07 08:14:46;;;;;;;12.45;7.20;;;;;;;;;;5044189;28;20052;-72
2021/09/07 08:17:31;;;;;;;11.05;7.32;;;;;;;;;;5044074;28;20493;-72
2021/09/07 08:20:16;;;;;;;11.20;7.72;;;;;;;;;;5044557;28;20063;-71
2021/09/07 08:23:02;;;;;;;11.90;8.05;;;;;;;;;;5030231;28;20114;-72
2021/09/07 08:25:47;;;;;;;11.38;7.28;;;;;;;;;;5031391;28;20047;-72
2021/09/07 08:28:31;;;;;;;9.65;7.40;;;;;;;;;;5044071;28;20461;-73
2021/09/07 08:31:16;;;;;;;12.57;7.93;;;;;;;;;;5044560;28;20098;-72
2021/09/07 08:34:00;;;;;;;10.95;6.88;;;;;;;;;;5044209;28;20074;-72
2021/09/07 08:36:45;;;;;;;10.85;7.60;;;;;;;;;;5044213;28;20043;-72
2021/09/07 08:39:29;;;;;;;11.10;7.55;;;;;;;;;;5046025;28;20430;-72
2021/09/07 08:42:14;;;;;;;11.20;7.93;;;;;;;;;;5044742;28;20048;-72
2021/09/07 08:44:58;;;;;;;11.50;7.93;;;;;;;;;;5045110;28;20070;-72
2021/09/07 08:47:43;;;;;;;11.68;8.02;;;;;;;;;;5025214;28;20554;-72
2021/09/07 08:50:28;;;;;;;11.57;7.45;;;;;;;;;;5032198;28;20120;-72
2021/09/07 08:53:13;;;;;;;12.27;8.02;;;;;;;;;;5044320;28;20043;-72
2021/09/07 08:55:58;;;;;;;12.35;8.25;;;;;;;;;;5044512;28;20096;-72
2021/09/07 08:58:43;;;;;;;14.40;8.55;;;;;;;;;;5044302;28;20056;-72
2021/09/07 09:01:28;;;;;;;16.13;8.85;;;;;;;;;;5045679;28;20075;-74
2021/09/07 09:04:28;;;;;;;13.20;7.78;;;;;;;;;;5045746;28;20099;-72
2021/09/07 09:07:42;;;;;;;11.90;7.20;;;;;;;;;;5033987;28;20114;-72
2021/09/07 09:10:28;;;;;;;15.02;8.82;;;;;;;;;;5024397;28;20107;-72
2021/09/07 09:13:16;;;;;;;14.15;9.13;;;;;;;;;;5041773;28;20056;-72
2021/09/07 09:16:05;;;;;;;13.38;8.98;;;;;;;;;;5044270;28;20124;-73
2021/09/07 09:18:49;;;;;;;14.68;9.10;;;;;;;;;;5044578;28;20098;-72
2021/09/07 09:21:34;;;;;;;13.70;8.98;;;;;;;;;;5045490;28;20528;-72
2021/09/07 09:24:20;;;;;;;14.35;9.15;;;;;;;;;;5044762;28;20083;-75
2021/09/07 09:27:04;;;;;;;13.32;8.70;;;;;;;;;;5041763;28;20084;-73
2021/09/07 09:29:51;;;;;;;13.90;9.07;;;;;;;;;;5044996;28;20905;-72
2021/09/07 09:32:44;;;;;;;15.30;9.13;;;;;;;;;;5045707;28;20780;-74
2021/09/07 09:35:29;;;;;;;12.75;8.88;;;;;;;;;;5045053;28;20071;-72
2021/09/07 09:38:13;;;;;;;12.02;8.45;;;;;;;;;;5044154;28;20099;-72
2021/09/07 09:40:59;;;;;;;12.77;8.80;;;;;;;;;;5042622;28;20540;-71
2021/09/07 09:43:44;;;;;;;14.07;9.55;;;;;;;;;;5044110;28;20055;-72
2021/09/07 09:46:28;;;;;;;15.13;9.85;;;;;;;;;;5046669;28;20116;-71
2021/09/07 09:49:13;;;;;;;14.55;9.70;;;;;;;;;;5046646;28;20059;-72
2021/09/07 09:52:03;;;;;;;15.57;10.48;;;;;;;;;;5042629;28;20043;-71
2021/09/07 09:54:47;;;;;;;13.63;10.23;;;;;;;;;;5048208;28;20036;-71
2021/09/07 09:57:35;;;;;;;12.02;8.98;;;;;;;;;;5032450;28;20791;-72
2021/09/07 10:00:20;;;;;;;16.20;10.07;;;;;;;;;;5056833;28;20087;-72
2021/09/07 10:03:07;;;;;;;13.60;9.38;;;;;;;;;;5048267;28;20461;-71
2021/09/07 10:05:52;;;;;;;13.35;9.57;;;;;;;;;;5047250;28;20504;-72
2021/09/07 10:08:39;;;;;;;13.68;9.82;;;;;;;;;;5059136;28;20040;-72
2021/09/07 10:11:25;;;;;;;15.20;9.90;;;;;;;;;;5052300;28;20671;-71
2021/09/07 10:14:13;;;;;;;15.90;10.57;;;;;;;;;;5026590;28;20036;-73
2021/09/07 10:17:24;;;;;;;14.40;10.25;;;;;;;;;;5054398;28;20039;-72
2021/09/07 10:23:06;;;;;;;15.27;10.80;;;;;;;;;;5043489;28;20532;-72
2021/09/07 10:26:01;;;;;;;14.80;9.85;;;;;;;;;;5040699;28;20078;-71
2021/09/07 10:28:46;;;;;;;15.18;9.77;;;;;;;;;;5060206;28;20083;-72
2021/09/07 10:31:38;;;;;;;13.02;10.32;;;;;;;;;;5039316;28;20452;-73
2021/09/07 10:34:25;;;;;;;15.40;10.40;;;;;;;;;;5013566;28;20083;-72
2021/09/07 10:37:11;;;;;;;15.88;10.60;;;;;;;;;;5032050;28;20036;-72
2021/09/07 10:39:55;;;;;;;15.68;10.50;;;;;;;;;;5047178;28;20091;-72
2021/09/07 10:42:46;;;;;;;13.40;9.85;;;;;;;;;;5038098;28;20054;-71
2021/09/07 10:45:31;;;;;;;13.73;9.90;;;;;;;;;;5055035;28;20039;-71
2021/09/07 10:48:31;;;;;;;15.73;10.15;;;;;;;;;;5039597;28;20102;-71
2021/09/07 10:51:15;;;;;;;12.63;9.88;;;;;;;;;;5044689;28;20140;-71
2021/09/07 10:54:08;;;;;;;15.48;9.75;;;;;;;;;;5045687;28;20075;-72
2021/09/07 10:56:56;;;;;;;12.93;9.52;;;;;;;;;;5029702;28;20040;-71
2021/09/07 10:59:48;;;;;;;12.35;9.60;;;;;;;;;;5045650;28;20043;-70
2021/09/07 11:02:36;;;;;;;15.00;9.45;;;;;;;;;;5040741;28;20048;-70
2021/09/07 11:05:26;;;;;;;14.50;9.20;;;;;;;;;;5035220;28;20040;-69
2021/09/07 11:08:43;;;;;;;13.27;8.23;;;;;;;;;;5039694;28;20045;-70
2021/09/07 11:11:28;;;;;;;13.00;8.75;;;;;;;;;;5032085;28;20360;-71
2021/09/07 11:14:14;;;;;;;12.38;8.20;;;;;;;;;;5020730;28;20129;-70
2021/09/07 11:16:58;;;;;;;10.77;8.57;;;;;;;;;;5029485;28;20043;-71
2021/09/07 11:19:59;;;;;;;12.52;8.82;;;;;;;;;;5037443;28;20052;-70
2021/09/07 11:22:44;;;;;;;11.60;8.20;;;;;;;;;;5038327;28;20512;-71
2021/09/07 11:25:29;;;;;;;15.18;8.30;;;;;;;;;;5046921;28;20040;-70
2021/09/07 11:28:15;;;;;;;11.13;8.13;;;;;;;;;;5044961;28;20159;-70
2021/09/07 11:30:59;;;;;;;10.30;8.00;;;;;;;;;;5030723;28;20147;-70
2021/09/07 11:33:45;;;;;;;9.90;7.78;;;;;;;;;;5045786;28;20043;-70
2021/09/07 11:36:29;;;;;;;11.63;8.15;;;;;;;;;;5045844;28;20552;-70
2021/09/07 11:39:20;;;;;;;11.65;7.53;;;;;;;;;;5028726;28;20251;-70
2021/09/07 11:42:05;;;;;;;10.37;7.30;;;;;;;;;;5043973;28;20086;-71
2021/09/07 11:44:49;;;;;;;9.45;7.25;;;;;;;;;;5039013;28;20477;-71
2021/09/07 11:47:34;;;;;;;9.57;7.15;;;;;;;;;;5044817;28;20063;-70
2021/09/07 11:50:22;;;;;;;9.55;8.10;;;;;;;;;;5043445;28;20031;-72
2021/09/07 11:53:09;;;;;;;8.35;6.63;;;;;;;;;;5030791;28;20048;-70
2021/09/07 11:55:54;;;;;;;9.27;7.38;;;;;;;;;;5044269;28;20060;-69
2021/09/07 11:58:42;;;;;;;11.48;7.07;;;;;;;;;;5045177;28;20131;-70
2021/09/07 12:01:29;;;;;;;8.18;6.88;;;;;;;;;;5042112;28;20088;-73
2021/09/07 12:04:15;;;;;;;9.50;6.82;;;;;;;;;;5021033;28;20036;-71
2021/09/07 12:07:08;;;;;;;10.23;6.70;;;;;;;;;;5044366;28;20431;-71
2021/09/07 12:09:53;;;;;;;8.95;6.60;;;;;;;;;;5044674;28;20094;-71
2021/09/07 12:12:38;;;;;;;9.90;6.22;;;;;;;;;;5043569;28;20072;-71
2021/09/07 12:15:23;;;;;;;11.60;6.50;;;;;;;;;;5043935;28;20036;-70
2021/09/07 12:18:07;;;;;;;8.40;6.00;;;;;;;;;;5044934;28;20520;-71
2021/09/07 12:20:52;;;;;;;11.65;6.72;;;;;;;;;;5044830;28;20052;-70
2021/09/07 12:23:37;;;;;;;8.13;6.80;;;;;;;;;;5036315;28;20059;-71
2021/09/07 12:26:40;;;;;;;7.97;6.53;;;;;;;;;;5028015;28;21761;-71
2021/09/07 12:29:25;;;;;;;8.95;6.75;;;;;;;;;;5051330;28;20080;-71
2021/09/07 12:32:10;;;;;;;9.65;6.30;;;;;;;;;;5032095;28;20136;-71
2021/09/07 12:34:54;;;;;;;9.02;6.35;;;;;;;;;;5057597;28;20051;-71
2021/09/07 12:37:39;;;;;;;7.75;6.22;;;;;;;;;;5042867;28;20036;-72
2021/09/07 12:40:23;;;;;;;7.63;5.97;;;;;;;;;;5037839;28;20151;-71
2021/09/07 12:43:09;;;;;;;10.82;6.15;;;;;;;;;;5027297;28;20559;-71
2021/09/07 12:45:54;;;;;;;10.80;6.60;;;;;;;;;;5025054;28;20090;-71
2021/09/07 12:48:39;;;;;;;7.28;5.97;;;;;;;;;;5024303;28;20036;-71
2021/09/07 12:51:24;;;;;;;8.75;6.80;;;;;;;;;;5026951;28;20098;-71
2021/09/07 12:54:15;;;;;;;10.00;6.22;;;;;;;;;;5038447;28;20113;-71
2021/09/07 12:57:00;;;;;;;9.07;6.15;;;;;;;;;;5037410;28;20075;-70
2021/09/07 12:59:44;;;;;;;8.02;6.82;;;;;;;;;;5044947;28;20188;-71
2021/09/07 13:02:29;;;;;;;8.20;6.28;;;;;;;;;;5041660;28;20182;-71
2021/09/07 13:05:14;;;;;;;7.07;6.20;;;;;;;;;;5043615;28;20398;-71
2021/09/07 13:07:58;;;;;;;7.93;6.80;;;;;;;;;;5044572;28;20136;-72
2021/09/07 13:10:43;;;;;;;7.07;6.05;;;;;;;;;;5030157;28;20043;-71
2021/09/07 13:13:27;;;;;;;8.40;6.32;;;;;;;;;;5044575;28;20124;-71
2021/09/07 13:16:12;;;;;;;8.88;6.20;;;;;;;;;;5041047;28;20555;-71
2021/09/07 13:18:57;;;;;;;9.00;5.82;;;;;;;;;;5026904;28;20056;-71
2021/09/07 13:21:43;;;;;;;9.70;6.00;;;;;;;;;;5031902;28;20521;-70
2021/09/07 13:24:27;;;;;;;7.80;6.10;;;;;;;;;;5034849;28;20083;-71
2021/09/07 13:27:12;;;;;;;6.68;5.93;;;;;;;;;;5042285;28;20082;-70
2021/09/07 13:29:56;;;;;;;9.73;6.80;;;;;;;;;;5047269;28;20516;-70
2021/09/07 13:32:41;;;;;;;8.02;6.55;;;;;;;;;;5048125;28;20044;-70
2021/09/07 13:35:26;;;;;;;13.75;6.72;;;;;;;;;;5027493;28;20125;-70
2021/09/07 13:38:10;;;;;;;8.25;6.65;;;;;;;;;;5031479;28;20047;-73
2021/09/07 13:40:54;;;;;;;7.63;6.20;;;;;;;;;;5047735;28;20068;-71
2021/09/07 13:43:39;;;;;;;7.03;6.15;;;;;;;;;;5047790;28;20453;-70
2021/09/07 13:46:23;;;;;;;7.15;6.40;;;;;;;;;;5039005;28;20043;-71
2021/09/07 13:49:08;;;;;;;9.13;6.93;;;;;;;;;;5048059;28;20044;-71
2021/09/07 13:51:53;;;;;;;9.15;6.57;;;;;;;;;;5033363;28;20036;-72
2021/09/07 13:54:37;;;;;;;10.80;7.10;;;;;;;;;;5032370;28;20092;-72
2021/09/07 13:57:22;;;;;;;8.75;7.15;;;;;;;;;;5047554;28;20044;-72
2021/09/07 14:00:08;;;;;;;9.88;6.85;;;;;;;;;;5042168;28;20766;-72
2021/09/07 14:02:53;;;;;;;9.55;6.85;;;;;;;;;;5027747;28;20525;-72
2021/09/07 14:05:37;;;;;;;8.52;6.65;;;;;;;;;;5041270;28;20143;-73
2021/09/07 14:08:22;;;;;;;7.40;6.20;;;;;;;;;;5048280;28;20123;-72
2021/09/07 14:11:06;;;;;;;8.75;6.65;;;;;;;;;;5039835;28;20175;-72
2021/09/07 14:13:51;;;;;;;7.78;6.50;;;;;;;;;;5035551;28;20032;-72
2021/09/07 14:16:36;;;;;;;7.85;6.40;;;;;;;;;;5033755;28;20533;-72
2021/09/07 14:19:20;;;;;;;7.65;6.60;;;;;;;;;;5030658;28;20036;-73
2021/09/07 14:22:05;;;;;;;9.60;6.88;;;;;;;;;;5029498;28;20502;-71
2021/09/07 14:24:49;;;;;;;9.50;7.15;;;;;;;;;;5040102;28;20568;-71
2021/09/07 14:27:34;;;;;;;7.57;6.47;;;;;;;;;;5044739;28;20406;-73
2021/09/07 14:30:19;;;;;;;10.90;7.15;;;;;;;;;;5045857;28;20048;-71
2021/09/07 14:33:03;;;;;;;10.25;7.57;;;;;;;;;;5042693;28;20039;-74
2021/09/07 14:35:48;;;;;;;10.05;7.25;;;;;;;;;;5047498;28;20059;-73
2021/09/07 14:38:32;;;;;;;10.73;7.57;;;;;;;;;;5045420;28;20031;-73
2021/09/07 14:41:17;;;;;;;10.55;7.13;;;;;;;;;;5047834;28;20063;-72
2021/09/07 14:44:01;;;;;;;10.75;7.63;;;;;;;;;;5046202;28;20127;-73
2021/09/07 14:46:46;;;;;;;9.90;7.32;;;;;;;;;;5043662;28;20094;-74
2021/09/07 14:49:31;;;;;;;24.63;8.15;;;;;;;;;;5045562;28;20075;-72
2021/09/07 14:52:15;;;;;;;9.30;7.10;;;;;;;;;;5041162;28;20044;-73
2021/09/07 14:55:00;;;;;;;13.27;7.32;;;;;;;;;;5043350;28;20079;-72
2021/09/07 14:57:44;;;;;;;11.35;7.60;;;;;;;;;;5038572;28;20556;-72
2021/09/07 15:00:29;;;;;;;10.40;8.02;;;;;;;;;;5040235;28;20451;-73
2021/09/07 15:03:13;;;;;;;11.70;7.43;;;;;;;;;;5045811;28;20055;-72
2021/09/07 15:05:58;;;;;;;9.20;7.18;;;;;;;;;;5024912;28;20090;-72
2021/09/07 15:08:42;;;;;;;9.85;7.10;;;;;;;;;;5030668;28;20411;-72
2021/09/07 15:11:27;;;;;;;9.18;7.35;;;;;;;;;;5045567;28;20044;-72
2021/09/07 15:14:11;;;;;;;9.13;7.28;;;;;;;;;;5043747;28;20036;-71
2021/09/07 15:16:57;;;;;;;8.23;7.03;;;;;;;;;;5040262;28;20051;-72
2021/09/07 15:19:42;;;;;;;8.20;7.00;;;;;;;;;;5045418;28;20036;-71
2021/09/07 15:22:26;;;;;;;8.35;7.32;;;;;;;;;;5034560;28;20544;-72
2021/09/07 15:25:11;;;;;;;9.10;7.22;;;;;;;;;;5041914;28;20075;-72
2021/09/07 15:27:56;;;;;;;8.80;7.00;;;;;;;;;;5035763;28;20055;-72
2021/09/07 15:30:40;;;;;;;10.30;6.75;;;;;;;;;;5027036;28;20080;-73
2021/09/07 15:33:25;;;;;;;8.35;7.10;;;;;;;;;;5042614;28;20731;-73
2021/09/07 15:36:09;;;;;;;8.80;6.38;;;;;;;;;;5047632;28;20127;-72
2021/09/07 15:38:54;;;;;;;7.57;6.78;;;;;;;;;;5042200;28;20446;-72
2021/09/07 15:41:38;;;;;;;8.65;6.85;;;;;;;;;;5032081;28;20144;-73
2021/09/07 15:44:23;;;;;;;7.32;6.53;;;;;;;;;;5034326;28;20051;-74
2021/09/07 15:47:08;;;;;;;7.30;6.40;;;;;;;;;;5037346;28;20063;-73
2021/09/07 15:49:53;;;;;;;7.70;6.60;;;;;;;;;;5036271;28;20194;-72
2021/09/07 15:52:37;;;;;;;7.90;6.15;;;;;;;;;;5040138;28;20039;-73
2021/09/07 15:55:22;;;;;;;9.60;6.63;;;;;;;;;;5037403;28;20040;-73
2021/09/07 15:58:06;;;;;;;7.10;6.40;;;;;;;;;;5025033;28;20135;-73
2021/09/07 16:00:51;;;;;;;7.95;6.35;;;;;;;;;;5038428;28;20512;-73
2021/09/07 16:03:35;;;;;;;9.68;7.43;;;;;;;;;;5035510;28;20083;-73
2021/09/07 16:06:20;;;;;;;8.02;6.95;;;;;;;;;;5043045;28;20109;-73
2021/09/07 16:09:04;;;;;;;7.45;6.65;;;;;;;;;;5037246;28;20536;-72
2021/09/07 16:11:53;;;;;;;9.82;6.97;;;;;;;;;;5031870;28;20140;-73
2021/09/07 16:14:37;;;;;;;7.28;6.25;;;;;;;;;;5026292;28;20067;-73
2021/09/07 16:17:22;;;;;;;7.20;6.45;;;;;;;;;;5030797;28;20055;-73
2021/09/07 16:20:06;;;;;;;8.18;6.18;;;;;;;;;;5038457;28;20514;-73
2021/09/07 16:22:51;;;;;;;8.20;6.95;;;;;;;;;;5041409;28;20102;-73